sensor_id;sensor_type;location;lat;lon;timestamp;P1;durP1;ratioP1;P2;durP2;ratioP2
55186;SDS011;55457;52.002;5.464;2022-10-26T00:01:25;9.93;;;3.67;;
55186;SDS011;55457;52.002;5.464;2022-10-26T00:03:50;9.38;;;4.13;;
55186;SDS011;55457;52.002;5.464;2022-10-26T00:06:19;7.50;;;4.18;;
55186;SDS011;55457;52.002;5.464;2022-10-26T00:08:47;10.38;;;4.47;;
55186;SDS011;55457;52.002;5.464;2022-10-26T00:11:13;9.63;;;3.92;;
55186;SDS011;55457;52.002;5.464;2022-10-26T00:13:39;8.27;;;3.47;;
55186;SDS011;55457;52.002;5.464;2022-10-26T00:16:12;7.03;;;4.30;;
55186;SDS011;55457;52.002;5.464;2022-10-26T00:18:40;5.95;;;4.30;;
55186;SDS011;55457;52.002;5.464;2022-10-26T00:21:06;5.60;;;3.90;;
55186;SDS011;55457;52.002;5.464;2022-10-26T00:23:33;7.13;;;4.22;;
55186;SDS011;55457;52.002;5.464;2022-10-26T00:25:58;9.45;;;4.35;;
55186;SDS011;55457;52.002;5.464;2022-10-26T00:28:24;5.90;;;4.00;;
55186;SDS011;55457;52.002;5.464;2022-10-26T00:30:50;6.10;;;3.42;;
55186;SDS011;55457;52.002;5.464;2022-10-26T00:33:16;9.77;;;4.10;;
55186;SDS011;55457;52.002;5.464;2022-10-26T00:35:41;7.68;;;3.85;;
55186;SDS011;55457;52.002;5.464;2022-10-26T00:38:07;6.47;;;4.40;;
55186;SDS011;55457;52.002;5.464;2022-10-26T00:40:32;8.70;;;4.15;;
55186;SDS011;55457;52.002;5.464;2022-10-26T00:42:58;8.45;;;3.80;;
55186;SDS011;55457;52.002;5.464;2022-10-26T00:45:26;6.78;;;4.15;;
55186;SDS011;55457;52.002;5.464;2022-10-26T00:47:55;7.07;;;3.75;;
55186;SDS011;55457;52.002;5.464;2022-10-26T00:50:25;8.85;;;3.67;;
55186;SDS011;55457;52.002;5.464;2022-10-26T00:52:56;4.50;;;3.40;;
55186;SDS011;55457;52.002;5.464;2022-10-26T00:55:23;8.30;;;3.60;;
55186;SDS011;55457;52.002;5.464;2022-10-26T00:57:53;6.85;;;4.07;;
55186;SDS011;55457;52.002;5.464;2022-10-26T01:00:19;9.63;;;3.78;;
55186;SDS011;55457;52.002;5.464;2022-10-26T01:02:45;5.72;;;3.90;;
55186;SDS011;55457;52.002;5.464;2022-10-26T01:05:12;8.68;;;4.07;;
55186;SDS011;55457;52.002;5.464;2022-10-26T01:07:41;4.55;;;3.28;;
55186;SDS011;55457;52.002;5.464;2022-10-26T01:10:08;7.50;;;3.35;;
55186;SDS011;55457;52.002;5.464;2022-10-26T01:12:35;5.35;;;3.30;;
55186;SDS011;55457;52.002;5.464;2022-10-26T01:15:01;7.18;;;3.17;;
55186;SDS011;55457;52.002;5.464;2022-10-26T01:17:28;4.97;;;3.50;;
55186;SDS011;55457;52.002;5.464;2022-10-26T01:31:21;6.78;;;3.90;;
55186;SDS011;55457;52.002;5.464;2022-10-26T01:34:02;5.85;;;3.58;;
55186;SDS011;55457;52.002;5.464;2022-10-26T01:36:50;9.63;;;3.60;;
55186;SDS011;55457;52.002;5.464;2022-10-26T01:39:38;6.33;;;3.30;;
55186;SDS011;55457;52.002;5.464;2022-10-26T01:42:18;6.82;;;4.03;;
55186;SDS011;55457;52.002;5.464;2022-10-26T01:44:47;4.82;;;3.20;;
55186;SDS011;55457;52.002;5.464;2022-10-26T01:47:17;5.70;;;2.95;;
55186;SDS011;55457;52.002;5.464;2022-10-26T01:49:54;8.57;;;4.32;;
55186;SDS011;55457;52.002;5.464;2022-10-26T01:52:22;5.78;;;3.47;;
55186;SDS011;55457;52.002;5.464;2022-10-26T01:54:47;7.43;;;3.60;;
55186;SDS011;55457;52.002;5.464;2022-10-26T01:57:13;7.05;;;3.90;;
55186;SDS011;55457;52.002;5.464;2022-10-26T02:05:52;4.95;;;3.15;;
55186;SDS011;55457;52.002;5.464;2022-10-26T02:09:00;6.25;;;3.38;;
55186;SDS011;55457;52.002;5.464;2022-10-26T02:11:45;7.03;;;3.67;;
55186;SDS011;55457;52.002;5.464;2022-10-26T02:17:06;8.32;;;3.38;;
55186;SDS011;55457;52.002;5.464;2022-10-26T02:24:43;6.47;;;2.80;;
55186;SDS011;55457;52.002;5.464;2022-10-26T02:27:13;5.57;;;3.20;;
55186;SDS011;55457;52.002;5.464;2022-10-26T02:29:45;5.10;;;2.85;;
55186;SDS011;55457;52.002;5.464;2022-10-26T02:32:14;5.45;;;2.72;;
55186;SDS011;55457;52.002;5.464;2022-10-26T02:34:43;3.75;;;2.90;;
55186;SDS011;55457;52.002;5.464;2022-10-26T02:37:11;5.63;;;3.17;;
55186;SDS011;55457;52.002;5.464;2022-10-26T02:39:39;6.32;;;3.28;;
55186;SDS011;55457;52.002;5.464;2022-10-26T02:42:06;7.07;;;3.17;;
55186;SDS011;55457;52.002;5.464;2022-10-26T02:44:39;7.35;;;3.33;;
55186;SDS011;55457;52.002;5.464;2022-10-26T02:47:08;5.07;;;3.10;;
55186;SDS011;55457;52.002;5.464;2022-10-26T02:49:33;5.57;;;2.97;;
55186;SDS011;55457;52.002;5.464;2022-10-26T02:52:08;5.60;;;3.15;;
55186;SDS011;55457;52.002;5.464;2022-10-26T02:54:41;4.22;;;2.42;;
55186;SDS011;55457;52.002;5.464;2022-10-26T02:57:15;3.97;;;2.70;;
55186;SDS011;55457;52.002;5.464;2022-10-26T02:59:44;4.10;;;2.83;;
55186;SDS011;55457;52.002;5.464;2022-10-26T03:02:12;6.00;;;2.63;;
55186;SDS011;55457;52.002;5.464;2022-10-26T03:04:40;4.70;;;2.83;;
55186;SDS011;55457;52.002;5.464;2022-10-26T03:07:05;6.47;;;3.25;;
55186;SDS011;55457;52.002;5.464;2022-10-26T03:09:31;4.78;;;2.40;;
55186;SDS011;55457;52.002;5.464;2022-10-26T03:11:56;6.18;;;2.92;;
55186;SDS011;55457;52.002;5.464;2022-10-26T03:14:21;5.22;;;3.20;;
55186;SDS011;55457;52.002;5.464;2022-10-26T03:16:47;8.25;;;3.88;;
55186;SDS011;55457;52.002;5.464;2022-10-26T03:19:12;4.07;;;2.63;;
55186;SDS011;55457;52.002;5.464;2022-10-26T03:21:37;7.90;;;2.80;;
55186;SDS011;55457;52.002;5.464;2022-10-26T03:24:03;5.35;;;2.92;;
55186;SDS011;55457;52.002;5.464;2022-10-26T03:26:28;4.45;;;2.70;;
55186;SDS011;55457;52.002;5.464;2022-10-26T03:28:53;5.57;;;2.88;;
55186;SDS011;55457;52.002;5.464;2022-10-26T03:31:19;4.07;;;3.08;;
55186;SDS011;55457;52.002;5.464;2022-10-26T03:33:44;5.57;;;3.08;;
55186;SDS011;55457;52.002;5.464;2022-10-26T03:36:09;8.45;;;2.65;;
55186;SDS011;55457;52.002;5.464;2022-10-26T03:38:35;6.38;;;2.65;;
55186;SDS011;55457;52.002;5.464;2022-10-26T03:41:00;5.45;;;2.88;;
55186;SDS011;55457;52.002;5.464;2022-10-26T03:43:25;3.78;;;2.47;;
55186;SDS011;55457;52.002;5.464;2022-10-26T03:45:51;3.63;;;2.20;;
55186;SDS011;55457;52.002;5.464;2022-10-26T03:51:31;3.22;;;2.38;;
55186;SDS011;55457;52.002;5.464;2022-10-26T03:53:57;6.65;;;2.75;;
55186;SDS011;55457;52.002;5.464;2022-10-26T03:56:22;3.53;;;2.40;;
55186;SDS011;55457;52.002;5.464;2022-10-26T03:58:47;5.95;;;2.90;;
55186;SDS011;55457;52.002;5.464;2022-10-26T04:01:13;4.05;;;2.67;;
55186;SDS011;55457;52.002;5.464;2022-10-26T04:03:38;3.33;;;2.33;;
55186;SDS011;55457;52.002;5.464;2022-10-26T04:06:03;6.72;;;2.65;;
55186;SDS011;55457;52.002;5.464;2022-10-26T04:08:31;4.35;;;2.92;;
55186;SDS011;55457;52.002;5.464;2022-10-26T04:10:56;5.95;;;2.58;;
55186;SDS011;55457;52.002;5.464;2022-10-26T04:13:21;6.43;;;3.28;;
55186;SDS011;55457;52.002;5.464;2022-10-26T04:15:47;6.55;;;2.65;;
55186;SDS011;55457;52.002;5.464;2022-10-26T04:18:13;4.97;;;2.78;;
55186;SDS011;55457;52.002;5.464;2022-10-26T04:20:38;3.92;;;2.30;;
55186;SDS011;55457;52.002;5.464;2022-10-26T04:23:06;4.95;;;2.70;;
55186;SDS011;55457;52.002;5.464;2022-10-26T04:25:35;5.10;;;2.75;;
55186;SDS011;55457;52.002;5.464;2022-10-26T04:28:01;6.70;;;2.80;;
55186;SDS011;55457;52.002;5.464;2022-10-26T04:30:28;3.75;;;2.45;;
55186;SDS011;55457;52.002;5.464;2022-10-26T04:32:53;4.75;;;3.35;;
55186;SDS011;55457;52.002;5.464;2022-10-26T04:35:18;4.00;;;2.70;;
55186;SDS011;55457;52.002;5.464;2022-10-26T04:37:44;5.57;;;2.80;;
55186;SDS011;55457;52.002;5.464;2022-10-26T04:40:09;4.80;;;2.10;;
55186;SDS011;55457;52.002;5.464;2022-10-26T04:42:45;4.95;;;2.65;;
55186;SDS011;55457;52.002;5.464;2022-10-26T04:45:11;5.55;;;2.50;;
55186;SDS011;55457;52.002;5.464;2022-10-26T04:47:38;4.25;;;2.22;;
55186;SDS011;55457;52.002;5.464;2022-10-26T04:50:04;4.68;;;2.65;;
55186;SDS011;55457;52.002;5.464;2022-10-26T04:52:31;3.45;;;2.38;;
55186;SDS011;55457;52.002;5.464;2022-10-26T04:54:56;5.47;;;2.72;;
55186;SDS011;55457;52.002;5.464;2022-10-26T04:57:22;6.03;;;2.60;;
55186;SDS011;55457;52.002;5.464;2022-10-26T04:59:47;4.03;;;2.42;;
55186;SDS011;55457;52.002;5.464;2022-10-26T05:02:12;4.15;;;2.58;;
55186;SDS011;55457;52.002;5.464;2022-10-26T05:04:38;6.22;;;2.25;;
55186;SDS011;55457;52.002;5.464;2022-10-26T05:07:03;5.10;;;2.35;;
55186;SDS011;55457;52.002;5.464;2022-10-26T05:09:28;5.25;;;2.03;;
55186;SDS011;55457;52.002;5.464;2022-10-26T05:11:53;5.15;;;2.65;;
55186;SDS011;55457;52.002;5.464;2022-10-26T05:14:19;5.50;;;3.35;;
55186;SDS011;55457;52.002;5.464;2022-10-26T05:16:44;4.88;;;2.45;;
55186;SDS011;55457;52.002;5.464;2022-10-26T05:19:09;11.52;;;2.85;;
55186;SDS011;55457;52.002;5.464;2022-10-26T05:21:35;8.02;;;3.53;;
55186;SDS011;55457;52.002;5.464;2022-10-26T05:24:02;9.80;;;3.65;;
55186;SDS011;55457;52.002;5.464;2022-10-26T05:26:27;3.90;;;2.28;;
55186;SDS011;55457;52.002;5.464;2022-10-26T05:28:52;4.38;;;2.00;;
55186;SDS011;55457;52.002;5.464;2022-10-26T05:31:18;5.93;;;2.42;;
55186;SDS011;55457;52.002;5.464;2022-10-26T05:33:48;7.57;;;2.67;;
55186;SDS011;55457;52.002;5.464;2022-10-26T05:36:14;4.03;;;2.22;;
55186;SDS011;55457;52.002;5.464;2022-10-26T05:38:41;3.88;;;2.10;;
55186;SDS011;55457;52.002;5.464;2022-10-26T05:41:06;5.53;;;2.78;;
55186;SDS011;55457;52.002;5.464;2022-10-26T05:43:31;5.07;;;2.38;;
55186;SDS011;55457;52.002;5.464;2022-10-26T05:45:56;7.18;;;2.78;;
55186;SDS011;55457;52.002;5.464;2022-10-26T05:48:22;7.70;;;2.55;;
55186;SDS011;55457;52.002;5.464;2022-10-26T05:50:47;3.35;;;2.40;;
55186;SDS011;55457;52.002;5.464;2022-10-26T05:53:13;6.45;;;2.90;;
55186;SDS011;55457;52.002;5.464;2022-10-26T05:55:38;5.35;;;2.40;;
55186;SDS011;55457;52.002;5.464;2022-10-26T05:58:07;3.95;;;2.55;;
55186;SDS011;55457;52.002;5.464;2022-10-26T06:00:34;2.58;;;2.20;;
55186;SDS011;55457;52.002;5.464;2022-10-26T06:05:55;3.88;;;2.60;;
55186;SDS011;55457;52.002;5.464;2022-10-26T06:08:22;7.78;;;2.42;;
55186;SDS011;55457;52.002;5.464;2022-10-26T06:10:52;4.18;;;2.30;;
55186;SDS011;55457;52.002;5.464;2022-10-26T06:13:19;6.82;;;2.63;;
55186;SDS011;55457;52.002;5.464;2022-10-26T06:24:18;7.93;;;2.35;;
55186;SDS011;55457;52.002;5.464;2022-10-26T06:26:58;12.85;;;2.70;;
55186;SDS011;55457;52.002;5.464;2022-10-26T06:32:00;11.00;;;3.60;;
55186;SDS011;55457;52.002;5.464;2022-10-26T06:34:26;6.80;;;3.20;;
55186;SDS011;55457;52.002;5.464;2022-10-26T06:36:57;11.55;;;3.05;;
55186;SDS011;55457;52.002;5.464;2022-10-26T06:39:25;5.72;;;2.47;;
55186;SDS011;55457;52.002;5.464;2022-10-26T06:41:53;8.00;;;2.50;;
55186;SDS011;55457;52.002;5.464;2022-10-26T06:44:22;7.07;;;2.60;;
55186;SDS011;55457;52.002;5.464;2022-10-26T06:55:01;8.60;;;3.53;;
55186;SDS011;55457;52.002;5.464;2022-10-26T06:57:31;8.00;;;2.70;;
55186;SDS011;55457;52.002;5.464;2022-10-26T07:00:00;6.72;;;2.85;;
55186;SDS011;55457;52.002;5.464;2022-10-26T07:02:38;8.15;;;2.65;;
55186;SDS011;55457;52.002;5.464;2022-10-26T07:05:03;7.97;;;4.07;;
55186;SDS011;55457;52.002;5.464;2022-10-26T07:07:29;6.65;;;2.80;;
55186;SDS011;55457;52.002;5.464;2022-10-26T07:09:55;10.13;;;2.90;;
55186;SDS011;55457;52.002;5.464;2022-10-26T07:12:20;4.18;;;2.55;;
55186;SDS011;55457;52.002;5.464;2022-10-26T07:14:45;11.20;;;2.53;;
55186;SDS011;55457;52.002;5.464;2022-10-26T07:17:11;8.93;;;2.72;;
55186;SDS011;55457;52.002;5.464;2022-10-26T07:19:36;10.48;;;3.03;;
55186;SDS011;55457;52.002;5.464;2022-10-26T07:22:04;7.43;;;2.63;;
55186;SDS011;55457;52.002;5.464;2022-10-26T07:24:29;8.10;;;2.75;;
55186;SDS011;55457;52.002;5.464;2022-10-26T07:26:56;11.27;;;2.50;;
55186;SDS011;55457;52.002;5.464;2022-10-26T07:29:22;9.02;;;3.00;;
55186;SDS011;55457;52.002;5.464;2022-10-26T07:31:48;3.65;;;2.85;;
55186;SDS011;55457;52.002;5.464;2022-10-26T07:34:14;8.85;;;2.60;;
55186;SDS011;55457;52.002;5.464;2022-10-26T07:36:40;10.35;;;3.05;;
55186;SDS011;55457;52.002;5.464;2022-10-26T07:39:05;4.30;;;2.30;;
55186;SDS011;55457;52.002;5.464;2022-10-26T07:41:31;8.30;;;3.08;;
55186;SDS011;55457;52.002;5.464;2022-10-26T07:43:57;6.05;;;2.53;;
55186;SDS011;55457;52.002;5.464;2022-10-26T07:46:22;8.05;;;2.05;;
55186;SDS011;55457;52.002;5.464;2022-10-26T07:48:48;8.85;;;2.92;;
55186;SDS011;55457;52.002;5.464;2022-10-26T07:51:14;10.00;;;3.28;;
55186;SDS011;55457;52.002;5.464;2022-10-26T07:53:39;10.45;;;3.00;;
55186;SDS011;55457;52.002;5.464;2022-10-26T07:56:05;6.55;;;2.90;;
55186;SDS011;55457;52.002;5.464;2022-10-26T07:58:31;9.75;;;3.25;;
55186;SDS011;55457;52.002;5.464;2022-10-26T08:00:57;5.45;;;2.70;;
55186;SDS011;55457;52.002;5.464;2022-10-26T08:03:29;7.78;;;3.80;;
55186;SDS011;55457;52.002;5.464;2022-10-26T08:05:54;7.28;;;2.85;;
55186;SDS011;55457;52.002;5.464;2022-10-26T08:08:20;7.60;;;3.42;;
55186;SDS011;55457;52.002;5.464;2022-10-26T08:10:45;6.70;;;2.70;;
55186;SDS011;55457;52.002;5.464;2022-10-26T08:13:11;12.45;;;2.70;;
55186;SDS011;55457;52.002;5.464;2022-10-26T08:15:37;7.53;;;2.22;;
55186;SDS011;55457;52.002;5.464;2022-10-26T08:18:04;6.57;;;3.08;;
55186;SDS011;55457;52.002;5.464;2022-10-26T08:20:29;12.93;;;2.47;;
55186;SDS011;55457;52.002;5.464;2022-10-26T08:22:55;6.43;;;2.45;;
55186;SDS011;55457;52.002;5.464;2022-10-26T08:25:21;6.07;;;2.10;;
55186;SDS011;55457;52.002;5.464;2022-10-26T08:27:46;4.45;;;2.65;;
55186;SDS011;55457;52.002;5.464;2022-10-26T08:30:11;8.30;;;3.05;;
55186;SDS011;55457;52.002;5.464;2022-10-26T08:32:37;6.70;;;2.33;;
55186;SDS011;55457;52.002;5.464;2022-10-26T08:35:02;8.38;;;2.25;;
55186;SDS011;55457;52.002;5.464;2022-10-26T08:37:27;4.15;;;2.78;;
55186;SDS011;55457;52.002;5.464;2022-10-26T08:39:53;8.55;;;2.53;;
55186;SDS011;55457;52.002;5.464;2022-10-26T08:42:21;5.88;;;2.90;;
55186;SDS011;55457;52.002;5.464;2022-10-26T08:44:52;7.13;;;2.53;;
55186;SDS011;55457;52.002;5.464;2022-10-26T08:47:24;6.82;;;2.40;;
55186;SDS011;55457;52.002;5.464;2022-10-26T08:52:46;8.68;;;2.85;;
55186;SDS011;55457;52.002;5.464;2022-10-26T08:55:16;4.35;;;2.40;;
55186;SDS011;55457;52.002;5.464;2022-10-26T08:57:44;4.45;;;2.17;;
55186;SDS011;55457;52.002;5.464;2022-10-26T09:00:17;3.85;;;2.25;;
55186;SDS011;55457;52.002;5.464;2022-10-26T09:02:49;9.25;;;2.42;;
55186;SDS011;55457;52.002;5.464;2022-10-26T09:05:16;6.38;;;2.80;;
55186;SDS011;55457;52.002;5.464;2022-10-26T09:13:05;4.07;;;2.55;;
55186;SDS011;55457;52.002;5.464;2022-10-26T09:23:39;5.10;;;2.50;;
55186;SDS011;55457;52.002;5.464;2022-10-26T09:26:26;7.60;;;2.97;;
55186;SDS011;55457;52.002;5.464;2022-10-26T09:28:56;4.88;;;2.53;;
55186;SDS011;55457;52.002;5.464;2022-10-26T09:31:26;6.75;;;2.72;;
55186;SDS011;55457;52.002;5.464;2022-10-26T09:33:54;5.70;;;2.80;;
55186;SDS011;55457;52.002;5.464;2022-10-26T09:36:21;6.53;;;2.88;;
55186;SDS011;55457;52.002;5.464;2022-10-26T09:41:35;6.13;;;2.90;;
55186;SDS011;55457;52.002;5.464;2022-10-26T09:49:50;6.50;;;2.45;;
55186;SDS011;55457;52.002;5.464;2022-10-26T09:52:19;4.90;;;2.22;;
55186;SDS011;55457;52.002;5.464;2022-10-26T09:54:45;4.03;;;2.78;;
55186;SDS011;55457;52.002;5.464;2022-10-26T09:57:12;4.38;;;2.83;;
55186;SDS011;55457;52.002;5.464;2022-10-26T09:59:39;5.95;;;2.60;;
55186;SDS011;55457;52.002;5.464;2022-10-26T10:07:44;4.90;;;2.70;;
55186;SDS011;55457;52.002;5.464;2022-10-26T10:10:28;5.68;;;2.03;;
55186;SDS011;55457;52.002;5.464;2022-10-26T10:12:53;6.70;;;2.78;;
55186;SDS011;55457;52.002;5.464;2022-10-26T10:15:20;4.68;;;2.25;;
55186;SDS011;55457;52.002;5.464;2022-10-26T10:17:48;5.03;;;2.50;;
55186;SDS011;55457;52.002;5.464;2022-10-26T10:20:21;4.45;;;2.50;;
55186;SDS011;55457;52.002;5.464;2022-10-26T10:22:58;6.85;;;2.63;;
55186;SDS011;55457;52.002;5.464;2022-10-26T10:25:30;3.90;;;2.53;;
55186;SDS011;55457;52.002;5.464;2022-10-26T10:27:56;5.75;;;1.73;;
55186;SDS011;55457;52.002;5.464;2022-10-26T10:30:26;4.63;;;2.13;;
55186;SDS011;55457;52.002;5.464;2022-10-26T10:33:09;4.05;;;1.88;;
55186;SDS011;55457;52.002;5.464;2022-10-26T10:35:35;4.93;;;2.10;;
55186;SDS011;55457;52.002;5.464;2022-10-26T10:38:04;5.22;;;2.47;;
55186;SDS011;55457;52.002;5.464;2022-10-26T10:40:30;5.47;;;2.08;;
55186;SDS011;55457;52.002;5.464;2022-10-26T10:43:03;4.97;;;2.13;;
55186;SDS011;55457;52.002;5.464;2022-10-26T10:45:35;3.15;;;2.20;;
55186;SDS011;55457;52.002;5.464;2022-10-26T10:50:36;4.50;;;1.90;;
55186;SDS011;55457;52.002;5.464;2022-10-26T10:53:14;4.65;;;2.20;;
55186;SDS011;55457;52.002;5.464;2022-10-26T10:55:45;5.25;;;2.10;;
55186;SDS011;55457;52.002;5.464;2022-10-26T10:58:55;3.75;;;2.00;;
55186;SDS011;55457;52.002;5.464;2022-10-26T11:01:13;5.95;;;2.47;;
55186;SDS011;55457;52.002;5.464;2022-10-26T11:06:26;5.35;;;1.73;;
55186;SDS011;55457;52.002;5.464;2022-10-26T11:09:04;4.70;;;2.40;;
55186;SDS011;55457;52.002;5.464;2022-10-26T11:11:41;5.30;;;2.63;;
55186;SDS011;55457;52.002;5.464;2022-10-26T11:14:15;6.67;;;2.27;;
55186;SDS011;55457;52.002;5.464;2022-10-26T11:16:58;4.03;;;1.75;;
55186;SDS011;55457;52.002;5.464;2022-10-26T11:19:35;4.22;;;2.03;;
55186;SDS011;55457;52.002;5.464;2022-10-26T11:22:08;4.10;;;2.05;;
55186;SDS011;55457;52.002;5.464;2022-10-26T11:24:40;10.00;;;2.15;;
55186;SDS011;55457;52.002;5.464;2022-10-26T11:27:16;4.72;;;2.85;;
55186;SDS011;55457;52.002;5.464;2022-10-26T11:29:53;7.88;;;2.47;;
55186;SDS011;55457;52.002;5.464;2022-10-26T11:32:27;4.97;;;2.00;;
55186;SDS011;55457;52.002;5.464;2022-10-26T11:35:02;5.78;;;2.42;;
55186;SDS011;55457;52.002;5.464;2022-10-26T11:45:57;4.13;;;1.92;;
55186;SDS011;55457;52.002;5.464;2022-10-26T11:48:34;7.63;;;2.15;;
55186;SDS011;55457;52.002;5.464;2022-10-26T11:51:10;5.10;;;2.25;;
55186;SDS011;55457;52.002;5.464;2022-10-26T11:53:43;7.05;;;2.45;;
55186;SDS011;55457;52.002;5.464;2022-10-26T11:56:12;4.47;;;2.08;;
55186;SDS011;55457;52.002;5.464;2022-10-26T11:58:43;6.55;;;2.33;;
55186;SDS011;55457;52.002;5.464;2022-10-26T12:01:10;5.07;;;2.20;;
55186;SDS011;55457;52.002;5.464;2022-10-26T12:03:41;4.60;;;2.25;;
55186;SDS011;55457;52.002;5.464;2022-10-26T12:06:10;5.67;;;2.47;;
55186;SDS011;55457;52.002;5.464;2022-10-26T12:08:39;7.50;;;2.15;;
55186;SDS011;55457;52.002;5.464;2022-10-26T12:13:53;5.28;;;2.17;;
55186;SDS011;55457;52.002;5.464;2022-10-26T12:19:05;5.10;;;2.38;;
55186;SDS011;55457;52.002;5.464;2022-10-26T12:21:36;4.47;;;1.98;;
55186;SDS011;55457;52.002;5.464;2022-10-26T12:24:23;5.88;;;2.90;;
55186;SDS011;55457;52.002;5.464;2022-10-26T12:27:03;5.85;;;2.45;;
55186;SDS011;55457;52.002;5.464;2022-10-26T12:29:34;5.38;;;2.15;;
55186;SDS011;55457;52.002;5.464;2022-10-26T12:32:48;3.97;;;1.95;;
55186;SDS011;55457;52.002;5.464;2022-10-26T12:34:57;7.47;;;2.22;;
55186;SDS011;55457;52.002;5.464;2022-10-26T12:37:35;3.47;;;2.10;;
55186;SDS011;55457;52.002;5.464;2022-10-26T12:42:54;2.20;;;1.70;;
55186;SDS011;55457;52.002;5.464;2022-10-26T12:45:20;4.10;;;2.05;;
55186;SDS011;55457;52.002;5.464;2022-10-26T13:00:12;5.07;;;2.63;;
55186;SDS011;55457;52.002;5.464;2022-10-26T13:08:42;3.92;;;2.28;;
55186;SDS011;55457;52.002;5.464;2022-10-26T13:11:13;2.50;;;2.30;;
55186;SDS011;55457;52.002;5.464;2022-10-26T13:13:42;4.13;;;2.63;;
55186;SDS011;55457;52.002;5.464;2022-10-26T13:16:10;4.07;;;2.45;;
55186;SDS011;55457;52.002;5.464;2022-10-26T13:18:40;4.43;;;3.45;;
55186;SDS011;55457;52.002;5.464;2022-10-26T13:21:08;3.28;;;2.58;;
55186;SDS011;55457;52.002;5.464;2022-10-26T13:23:41;3.10;;;1.90;;
55186;SDS011;55457;52.002;5.464;2022-10-26T13:31:01;2.80;;;2.00;;
55186;SDS011;55457;52.002;5.464;2022-10-26T13:33:38;4.38;;;2.65;;
55186;SDS011;55457;52.002;5.464;2022-10-26T13:36:10;3.42;;;2.17;;
55186;SDS011;55457;52.002;5.464;2022-10-26T13:38:46;4.10;;;2.20;;
55186;SDS011;55457;52.002;5.464;2022-10-26T13:41:20;5.53;;;2.63;;
55186;SDS011;55457;52.002;5.464;2022-10-26T13:43:52;3.85;;;2.00;;
55186;SDS011;55457;52.002;5.464;2022-10-26T13:46:22;4.75;;;3.22;;
55186;SDS011;55457;52.002;5.464;2022-10-26T13:48:50;4.93;;;2.63;;
55186;SDS011;55457;52.002;5.464;2022-10-26T13:59:11;4.13;;;2.20;;
55186;SDS011;55457;52.002;5.464;2022-10-26T14:01:37;3.80;;;2.30;;
55186;SDS011;55457;52.002;5.464;2022-10-26T14:06:51;3.13;;;2.20;;
55186;SDS011;55457;52.002;5.464;2022-10-26T14:09:18;2.75;;;2.03;;
55186;SDS011;55457;52.002;5.464;2022-10-26T14:14:20;2.97;;;1.92;;
55186;SDS011;55457;52.002;5.464;2022-10-26T14:16:48;2.97;;;2.15;;
55186;SDS011;55457;52.002;5.464;2022-10-26T14:19:20;5.43;;;2.78;;
55186;SDS011;55457;52.002;5.464;2022-10-26T14:21:50;2.42;;;2.22;;
55186;SDS011;55457;52.002;5.464;2022-10-26T14:24:20;4.13;;;2.30;;
55186;SDS011;55457;52.002;5.464;2022-10-26T14:26:47;4.37;;;2.07;;
55186;SDS011;55457;52.002;5.464;2022-10-26T14:29:17;4.35;;;2.00;;
55186;SDS011;55457;52.002;5.464;2022-10-26T14:34:10;2.35;;;2.15;;
55186;SDS011;55457;52.002;5.464;2022-10-26T14:36:44;3.85;;;2.80;;
55186;SDS011;55457;52.002;5.464;2022-10-26T14:39:15;2.42;;;1.92;;
55186;SDS011;55457;52.002;5.464;2022-10-26T14:41:48;2.85;;;2.45;;
55186;SDS011;55457;52.002;5.464;2022-10-26T14:44:15;4.10;;;2.40;;
55186;SDS011;55457;52.002;5.464;2022-10-26T14:46:43;4.40;;;2.40;;
55186;SDS011;55457;52.002;5.464;2022-10-26T14:49:20;3.05;;;2.45;;
55186;SDS011;55457;52.002;5.464;2022-10-26T14:51:47;3.70;;;2.40;;
55186;SDS011;55457;52.002;5.464;2022-10-26T14:54:21;3.17;;;2.33;;
55186;SDS011;55457;52.002;5.464;2022-10-26T14:56:49;3.58;;;2.20;;
55186;SDS011;55457;52.002;5.464;2022-10-26T15:01:54;3.45;;;2.40;;
55186;SDS011;55457;52.002;5.464;2022-10-26T15:04:29;2.70;;;2.05;;
55186;SDS011;55457;52.002;5.464;2022-10-26T15:07:06;3.38;;;2.45;;
55186;SDS011;55457;52.002;5.464;2022-10-26T15:09:46;4.78;;;2.47;;
55186;SDS011;55457;52.002;5.464;2022-10-26T15:12:37;3.60;;;2.42;;
55186;SDS011;55457;52.002;5.464;2022-10-26T15:17:41;4.72;;;2.33;;
55186;SDS011;55457;52.002;5.464;2022-10-26T15:20:23;3.42;;;1.98;;
55186;SDS011;55457;52.002;5.464;2022-10-26T15:22:51;5.50;;;2.08;;
55186;SDS011;55457;52.002;5.464;2022-10-26T15:25:22;2.85;;;2.20;;
55186;SDS011;55457;52.002;5.464;2022-10-26T15:27:52;5.15;;;2.30;;
55186;SDS011;55457;52.002;5.464;2022-10-26T15:32:43;3.58;;;2.67;;
55186;SDS011;55457;52.002;5.464;2022-10-26T15:37:44;7.07;;;2.63;;
55186;SDS011;55457;52.002;5.464;2022-10-26T15:40:11;3.40;;;2.55;;
55186;SDS011;55457;52.002;5.464;2022-10-26T15:42:37;6.32;;;2.70;;
55186;SDS011;55457;52.002;5.464;2022-10-26T15:45:04;5.32;;;2.40;;
55186;SDS011;55457;52.002;5.464;2022-10-26T15:47:39;5.20;;;2.58;;
55186;SDS011;55457;52.002;5.464;2022-10-26T15:50:05;3.33;;;2.55;;
55186;SDS011;55457;52.002;5.464;2022-10-26T15:52:32;4.10;;;2.28;;
55186;SDS011;55457;52.002;5.464;2022-10-26T15:54:57;6.93;;;2.42;;
55186;SDS011;55457;52.002;5.464;2022-10-26T15:57:23;4.03;;;2.58;;
55186;SDS011;55457;52.002;5.464;2022-10-26T15:59:49;3.15;;;2.42;;
55186;SDS011;55457;52.002;5.464;2022-10-26T16:02:15;5.32;;;2.55;;
55186;SDS011;55457;52.002;5.464;2022-10-26T16:04:41;6.53;;;2.65;;
55186;SDS011;55457;52.002;5.464;2022-10-26T16:07:15;3.88;;;2.05;;
55186;SDS011;55457;52.002;5.464;2022-10-26T16:09:42;3.55;;;2.60;;
55186;SDS011;55457;52.002;5.464;2022-10-26T16:12:11;5.32;;;2.17;;
55186;SDS011;55457;52.002;5.464;2022-10-26T16:14:38;4.65;;;2.50;;
55186;SDS011;55457;52.002;5.464;2022-10-26T16:17:04;3.80;;;2.53;;
55186;SDS011;55457;52.002;5.464;2022-10-26T16:19:31;3.40;;;1.92;;
55186;SDS011;55457;52.002;5.464;2022-10-26T16:21:57;3.58;;;1.90;;
55186;SDS011;55457;52.002;5.464;2022-10-26T16:24:23;3.03;;;2.13;;
55186;SDS011;55457;52.002;5.464;2022-10-26T16:26:48;5.03;;;2.22;;
55186;SDS011;55457;52.002;5.464;2022-10-26T16:29:13;4.07;;;2.38;;
55186;SDS011;55457;52.002;5.464;2022-10-26T16:31:39;3.50;;;2.50;;
55186;SDS011;55457;52.002;5.464;2022-10-26T16:34:04;3.20;;;2.17;;
55186;SDS011;55457;52.002;5.464;2022-10-26T16:36:29;2.80;;;1.67;;
55186;SDS011;55457;52.002;5.464;2022-10-26T16:38:57;2.75;;;2.00;;
55186;SDS011;55457;52.002;5.464;2022-10-26T16:41:23;7.07;;;2.83;;
55186;SDS011;55457;52.002;5.464;2022-10-26T16:43:48;8.20;;;2.30;;
55186;SDS011;55457;52.002;5.464;2022-10-26T16:46:17;2.80;;;2.10;;
55186;SDS011;55457;52.002;5.464;2022-10-26T16:48:45;4.82;;;2.60;;
55186;SDS011;55457;52.002;5.464;2022-10-26T16:51:12;2.92;;;2.00;;
55186;SDS011;55457;52.002;5.464;2022-10-26T16:53:39;2.72;;;1.85;;
55186;SDS011;55457;52.002;5.464;2022-10-26T16:56:06;2.85;;;1.88;;
55186;SDS011;55457;52.002;5.464;2022-10-26T16:58:36;3.30;;;2.35;;
55186;SDS011;55457;52.002;5.464;2022-10-26T17:01:01;4.47;;;2.00;;
55186;SDS011;55457;52.002;5.464;2022-10-26T17:03:27;3.92;;;2.30;;
55186;SDS011;55457;52.002;5.464;2022-10-26T17:05:53;9.13;;;2.20;;
55186;SDS011;55457;52.002;5.464;2022-10-26T17:08:20;2.90;;;2.47;;
55186;SDS011;55457;52.002;5.464;2022-10-26T17:10:45;4.75;;;2.35;;
55186;SDS011;55457;52.002;5.464;2022-10-26T17:13:11;3.25;;;2.35;;
55186;SDS011;55457;52.002;5.464;2022-10-26T17:15:36;3.67;;;1.95;;
55186;SDS011;55457;52.002;5.464;2022-10-26T17:18:01;3.30;;;1.80;;
55186;SDS011;55457;52.002;5.464;2022-10-26T17:20:26;3.50;;;2.17;;
55186;SDS011;55457;52.002;5.464;2022-10-26T17:22:52;3.72;;;2.80;;
55186;SDS011;55457;52.002;5.464;2022-10-26T17:25:17;2.95;;;2.22;;
55186;SDS011;55457;52.002;5.464;2022-10-26T17:27:42;6.20;;;2.45;;
55186;SDS011;55457;52.002;5.464;2022-10-26T17:30:08;3.55;;;2.13;;